Millenium Air

Millenium Air Since 1998



 METAR AND TAF INFORMATION
METAR FOR EKYT
ADDS - METARS form results

(0637 UTC 18 April 2021)
Data provider http://aviationweather.gov/metar/data/
 
METAR text: EKYT 180620Z AUTO 05008KT 9999 BKN150/// 10/01 Q1026
Conditions at: EKYT (ALBORG , DK) observed 0620 UTC 18 April 2021
Temperature: 10.0°C (50°F)
Dewpoint: 1.0°C (34°F) [RH = 53%]
Pressure (altimeter): 30.30 inches Hg (1026.0 mb)
Winds: from the NE (50 degrees) at 9 MPH (8 knots; 4.1 m/s)
Visibility: 6 or more miles (10+ km)
Ceiling: 15000 feet AGL
Clouds: broken clouds at 15000 feet AGL
Weather: no significant weather observed at this time

METAR text: EKYT 180550Z AUTO 03004KT 9999 FEW160/// SCT180/// 07/00 Q1026
Conditions at: EKYT (ALBORG , DK) observed 0550 UTC 18 April 2021
Temperature: 7.0°C (45°F)
Dewpoint: 0.0°C (32°F) [RH = 61%]
Pressure (altimeter): 30.30 inches Hg (1026.0 mb)
Winds: from the NNE (30 degrees) at 5 MPH (4 knots; 2.1 m/s)
Visibility: 6 or more miles (10+ km)
Ceiling: at least 12,000 feet AGL
Clouds: few clouds at 16000 feet AGL
scattered clouds at 18000 feet AGL
Weather: no significant weather observed at this time

Forecast for: EKYT (ALBORG , DK)
Text: TAF EKYT 180512Z 1806/1906 06006KT 9999 SCT100
Forecast period: 0600 UTC 18 April 2021 to 0600 UTC 19 April 2021
Forecast type: FROM: standard forecast or significant change
Winds: from the ENE (60 degrees) at 7 MPH (6 knots; 3.1 m/s)
Visibility: 6 or more miles (10+ km)
Ceiling: at least 12,000 feet AGL
Clouds: scattered clouds at 10000 feet AGL
Weather: no significant weather forecast for this period
Text: TEMPO 1812/1815 09010G20KT
Forecast period: 1200 to 1500 UTC 18 April 2021
Forecast type: TEMPORARY: The following changes expected for less than half the time period
Winds: from the E (90 degrees) at 12 MPH (10 knots; 5.1 m/s)
gusting to 23 MPH (20 knots; 10.3 m/s)
Visibility: missing
Ceiling: unknown
Clouds: missing
Weather: no significant weather forecast for this period

 AIRPORT MAP

 RUNWAY INFORMATION
Runway 08L Runway length 8707 ft Runway width 148 ft
Runway elevation 8 ft Runway displaced threshold 0 ft Runway heading 83
Runway 26R Runway length 8707 ft Runway width 148 ft
Runway elevation 10 ft Runway displaced threshold 0 ft Runway heading 263
Runway 08R Runway length 8363 ft Runway width 74 ft
Runway elevation 7 ft Runway displaced threshold 0 ft Runway heading 83
Runway 26L Runway length 8363 ft Runway width 74 ft
Runway elevation 10 ft Runway displaced threshold 0 ft Runway heading 263

 AIRPORT FREQUENCIES
Type APP Name APP Frequency 123.975 MHZ
Type ATIS Name ATIS Frequency 120.475 MHZ
Type MISC Name HANDLING Frequency 131.55 MHZ
Type TWR Name TWR Frequency 118.3 MHZ

 AIRPORT NEAR NAVIGATION AIDS
Type TACAN Name Aalborg Frequency 116700 KHZ
Type VOR-DME Name Aalborg Frequency 116700 KHZ
Type NDB Name Aalborg Frequency 398 KHZ